sensor_id;sensor_type;location;lat;lon;timestamp;P1;durP1;ratioP1;P2;durP2;ratioP2
20531;SDS011;10424;52.102;8.084;2024-03-06T00:02:21;39.80;;;20.75;;
20531;SDS011;10424;52.102;8.084;2024-03-06T00:04:49;36.92;;;19.85;;
20531;SDS011;10424;52.102;8.084;2024-03-06T00:07:16;35.72;;;20.42;;
20531;SDS011;10424;52.102;8.084;2024-03-06T00:09:43;37.08;;;20.10;;
20531;SDS011;10424;52.102;8.084;2024-03-06T00:12:10;35.83;;;19.45;;
20531;SDS011;10424;52.102;8.084;2024-03-06T00:14:37;37.22;;;19.98;;
20531;SDS011;10424;52.102;8.084;2024-03-06T00:17:04;36.65;;;20.33;;
20531;SDS011;10424;52.102;8.084;2024-03-06T00:19:33;34.65;;;20.23;;
20531;SDS011;10424;52.102;8.084;2024-03-06T00:22:00;37.70;;;20.08;;
20531;SDS011;10424;52.102;8.084;2024-03-06T00:24:27;36.40;;;20.05;;
20531;SDS011;10424;52.102;8.084;2024-03-06T00:26:55;38.05;;;20.02;;
20531;SDS011;10424;52.102;8.084;2024-03-06T00:29:22;35.17;;;19.23;;
20531;SDS011;10424;52.102;8.084;2024-03-06T00:31:49;36.92;;;19.35;;
20531;SDS011;10424;52.102;8.084;2024-03-06T00:34:17;35.88;;;19.45;;
20531;SDS011;10424;52.102;8.084;2024-03-06T00:36:45;35.70;;;19.75;;
20531;SDS011;10424;52.102;8.084;2024-03-06T00:39:13;34.22;;;19.05;;
20531;SDS011;10424;52.102;8.084;2024-03-06T00:41:40;37.60;;;19.83;;
20531;SDS011;10424;52.102;8.084;2024-03-06T00:44:07;36.47;;;20.48;;
20531;SDS011;10424;52.102;8.084;2024-03-06T00:46:34;39.05;;;20.42;;
20531;SDS011;10424;52.102;8.084;2024-03-06T00:49:02;37.80;;;19.58;;
20531;SDS011;10424;52.102;8.084;2024-03-06T00:51:29;36.47;;;20.33;;
20531;SDS011;10424;52.102;8.084;2024-03-06T00:53:58;39.60;;;20.25;;
20531;SDS011;10424;52.102;8.084;2024-03-06T00:56:25;38.58;;;21.10;;
20531;SDS011;10424;52.102;8.084;2024-03-06T00:58:51;39.90;;;21.23;;
20531;SDS011;10424;52.102;8.084;2024-03-06T01:01:18;40.42;;;21.40;;
20531;SDS011;10424;52.102;8.084;2024-03-06T01:03:45;39.38;;;20.65;;
20531;SDS011;10424;52.102;8.084;2024-03-06T01:06:12;39.55;;;20.90;;
20531;SDS011;10424;52.102;8.084;2024-03-06T01:08:40;39.95;;;20.58;;
20531;SDS011;10424;52.102;8.084;2024-03-06T01:11:08;39.80;;;20.60;;
20531;SDS011;10424;52.102;8.084;2024-03-06T01:13:39;42.60;;;21.17;;
20531;SDS011;10424;52.102;8.084;2024-03-06T01:16:06;37.17;;;20.92;;
20531;SDS011;10424;52.102;8.084;2024-03-06T01:18:34;38.88;;;20.70;;
20531;SDS011;10424;52.102;8.084;2024-03-06T01:21:01;45.72;;;21.92;;
20531;SDS011;10424;52.102;8.084;2024-03-06T01:23:28;40.83;;;22.27;;
20531;SDS011;10424;52.102;8.084;2024-03-06T01:25:55;41.70;;;23.02;;
20531;SDS011;10424;52.102;8.084;2024-03-06T01:28:24;46.10;;;22.88;;
20531;SDS011;10424;52.102;8.084;2024-03-06T01:30:51;39.90;;;21.73;;
20531;SDS011;10424;52.102;8.084;2024-03-06T01:33:19;48.45;;;23.75;;
20531;SDS011;10424;52.102;8.084;2024-03-06T01:35:47;42.58;;;22.35;;
20531;SDS011;10424;52.102;8.084;2024-03-06T01:38:14;43.47;;;22.88;;
20531;SDS011;10424;52.102;8.084;2024-03-06T01:40:42;41.90;;;22.15;;
20531;SDS011;10424;52.102;8.084;2024-03-06T01:43:17;46.55;;;22.73;;
20531;SDS011;10424;52.102;8.084;2024-03-06T01:45:45;47.40;;;23.50;;
20531;SDS011;10424;52.102;8.084;2024-03-06T01:48:12;44.35;;;22.88;;
20531;SDS011;10424;52.102;8.084;2024-03-06T01:50:40;43.47;;;22.85;;
20531;SDS011;10424;52.102;8.084;2024-03-06T01:53:07;45.63;;;22.40;;
20531;SDS011;10424;52.102;8.084;2024-03-06T01:55:35;43.25;;;22.77;;
20531;SDS011;10424;52.102;8.084;2024-03-06T01:58:02;46.45;;;23.33;;
20531;SDS011;10424;52.102;8.084;2024-03-06T02:00:31;46.22;;;23.60;;
20531;SDS011;10424;52.102;8.084;2024-03-06T02:03:00;44.78;;;23.52;;
20531;SDS011;10424;52.102;8.084;2024-03-06T02:05:27;48.67;;;23.52;;
20531;SDS011;10424;52.102;8.084;2024-03-06T02:07:56;45.88;;;23.80;;
20531;SDS011;10424;52.102;8.084;2024-03-06T02:10:24;44.58;;;22.73;;
20531;SDS011;10424;52.102;8.084;2024-03-06T02:12:52;43.88;;;22.95;;
20531;SDS011;10424;52.102;8.084;2024-03-06T02:15:19;42.38;;;22.02;;
20531;SDS011;10424;52.102;8.084;2024-03-06T02:17:46;46.70;;;23.20;;
20531;SDS011;10424;52.102;8.084;2024-03-06T02:20:15;45.65;;;23.42;;
20531;SDS011;10424;52.102;8.084;2024-03-06T02:22:44;41.83;;;21.70;;
20531;SDS011;10424;52.102;8.084;2024-03-06T02:25:11;43.40;;;23.23;;
20531;SDS011;10424;52.102;8.084;2024-03-06T02:27:40;48.17;;;22.95;;
20531;SDS011;10424;52.102;8.084;2024-03-06T02:30:07;46.67;;;22.65;;
20531;SDS011;10424;52.102;8.084;2024-03-06T02:32:34;44.47;;;23.77;;
20531;SDS011;10424;52.102;8.084;2024-03-06T02:35:02;46.65;;;23.42;;
20531;SDS011;10424;52.102;8.084;2024-03-06T02:37:33;43.83;;;23.55;;
20531;SDS011;10424;52.102;8.084;2024-03-06T02:40:02;46.88;;;23.52;;
20531;SDS011;10424;52.102;8.084;2024-03-06T02:42:32;45.90;;;23.25;;
20531;SDS011;10424;52.102;8.084;2024-03-06T02:44:59;49.22;;;23.75;;
20531;SDS011;10424;52.102;8.084;2024-03-06T02:47:26;46.28;;;23.20;;
20531;SDS011;10424;52.102;8.084;2024-03-06T02:49:53;48.30;;;23.85;;
20531;SDS011;10424;52.102;8.084;2024-03-06T02:52:21;45.80;;;23.25;;
20531;SDS011;10424;52.102;8.084;2024-03-06T02:54:48;48.70;;;24.30;;
20531;SDS011;10424;52.102;8.084;2024-03-06T02:57:16;47.08;;;24.20;;
20531;SDS011;10424;52.102;8.084;2024-03-06T02:59:43;51.58;;;24.13;;
20531;SDS011;10424;52.102;8.084;2024-03-06T03:02:11;50.90;;;24.15;;
20531;SDS011;10424;52.102;8.084;2024-03-06T03:04:38;50.08;;;25.40;;
20531;SDS011;10424;52.102;8.084;2024-03-06T03:07:05;51.40;;;25.85;;
20531;SDS011;10424;52.102;8.084;2024-03-06T03:09:32;50.05;;;24.52;;
20531;SDS011;10424;52.102;8.084;2024-03-06T03:12:01;50.38;;;25.63;;
20531;SDS011;10424;52.102;8.084;2024-03-06T03:14:29;50.63;;;24.27;;
20531;SDS011;10424;52.102;8.084;2024-03-06T03:16:57;45.65;;;23.98;;
20531;SDS011;10424;52.102;8.084;2024-03-06T03:19:24;50.13;;;25.38;;
20531;SDS011;10424;52.102;8.084;2024-03-06T03:21:51;50.17;;;25.35;;
20531;SDS011;10424;52.102;8.084;2024-03-06T03:24:18;51.15;;;25.58;;
20531;SDS011;10424;52.102;8.084;2024-03-06T03:26:46;54.88;;;26.30;;
20531;SDS011;10424;52.102;8.084;2024-03-06T03:29:14;57.03;;;27.40;;
20531;SDS011;10424;52.102;8.084;2024-03-06T03:31:42;53.22;;;26.60;;
20531;SDS011;10424;52.102;8.084;2024-03-06T03:34:10;53.83;;;27.55;;
20531;SDS011;10424;52.102;8.084;2024-03-06T03:36:39;52.25;;;26.85;;
20531;SDS011;10424;52.102;8.084;2024-03-06T03:39:07;53.88;;;26.33;;
20531;SDS011;10424;52.102;8.084;2024-03-06T03:41:42;56.90;;;28.13;;
20531;SDS011;10424;52.102;8.084;2024-03-06T03:44:10;58.40;;;27.73;;
20531;SDS011;10424;52.102;8.084;2024-03-06T03:46:37;57.00;;;28.92;;
20531;SDS011;10424;52.102;8.084;2024-03-06T03:49:06;59.38;;;28.67;;
20531;SDS011;10424;52.102;8.084;2024-03-06T03:51:33;60.58;;;30.10;;
20531;SDS011;10424;52.102;8.084;2024-03-06T03:54:01;61.40;;;28.50;;
20531;SDS011;10424;52.102;8.084;2024-03-06T03:56:28;57.65;;;28.85;;
20531;SDS011;10424;52.102;8.084;2024-03-06T03:58:55;59.72;;;29.88;;
20531;SDS011;10424;52.102;8.084;2024-03-06T04:01:23;64.07;;;29.52;;
20531;SDS011;10424;52.102;8.084;2024-03-06T04:03:50;61.40;;;29.60;;
20531;SDS011;10424;52.102;8.084;2024-03-06T04:06:19;62.13;;;29.05;;
20531;SDS011;10424;52.102;8.084;2024-03-06T04:08:46;62.08;;;29.77;;
20531;SDS011;10424;52.102;8.084;2024-03-06T04:11:13;64.20;;;29.05;;
20531;SDS011;10424;52.102;8.084;2024-03-06T04:13:41;57.17;;;29.40;;
20531;SDS011;10424;52.102;8.084;2024-03-06T04:16:08;65.90;;;31.20;;
20531;SDS011;10424;52.102;8.084;2024-03-06T04:18:35;65.82;;;30.00;;
20531;SDS011;10424;52.102;8.084;2024-03-06T04:21:03;59.17;;;29.02;;
20531;SDS011;10424;52.102;8.084;2024-03-06T04:23:32;56.00;;;28.23;;
20531;SDS011;10424;52.102;8.084;2024-03-06T04:26:00;60.58;;;29.17;;
20531;SDS011;10424;52.102;8.084;2024-03-06T04:28:28;62.47;;;30.00;;
20531;SDS011;10424;52.102;8.084;2024-03-06T04:30:55;66.05;;;30.65;;
20531;SDS011;10424;52.102;8.084;2024-03-06T04:33:22;60.35;;;29.50;;
20531;SDS011;10424;52.102;8.084;2024-03-06T04:35:50;59.90;;;29.35;;
20531;SDS011;10424;52.102;8.084;2024-03-06T04:38:17;61.97;;;29.35;;
20531;SDS011;10424;52.102;8.084;2024-03-06T04:40:46;66.93;;;31.00;;
20531;SDS011;10424;52.102;8.084;2024-03-06T04:43:13;64.95;;;29.98;;
20531;SDS011;10424;52.102;8.084;2024-03-06T04:45:40;62.47;;;29.52;;
20531;SDS011;10424;52.102;8.084;2024-03-06T04:48:07;62.20;;;29.25;;
20531;SDS011;10424;52.102;8.084;2024-03-06T04:50:34;62.55;;;30.25;;
20531;SDS011;10424;52.102;8.084;2024-03-06T04:53:01;64.82;;;30.30;;
20531;SDS011;10424;52.102;8.084;2024-03-06T04:55:28;62.42;;;29.45;;
20531;SDS011;10424;52.102;8.084;2024-03-06T04:57:57;64.88;;;28.65;;
20531;SDS011;10424;52.102;8.084;2024-03-06T05:00:24;61.00;;;28.48;;
20531;SDS011;10424;52.102;8.084;2024-03-06T05:02:52;62.42;;;28.92;;
20531;SDS011;10424;52.102;8.084;2024-03-06T05:05:21;62.45;;;28.42;;
20531;SDS011;10424;52.102;8.084;2024-03-06T05:07:50;59.08;;;27.20;;
20531;SDS011;10424;52.102;8.084;2024-03-06T05:10:17;59.97;;;27.08;;
20531;SDS011;10424;52.102;8.084;2024-03-06T05:12:44;66.00;;;28.45;;
20531;SDS011;10424;52.102;8.084;2024-03-06T05:15:13;64.03;;;28.73;;
20531;SDS011;10424;52.102;8.084;2024-03-06T05:17:40;66.78;;;29.75;;
20531;SDS011;10424;52.102;8.084;2024-03-06T05:20:08;58.80;;;28.75;;
20531;SDS011;10424;52.102;8.084;2024-03-06T05:22:35;66.68;;;28.05;;
20531;SDS011;10424;52.102;8.084;2024-03-06T05:25:03;66.22;;;28.15;;
20531;SDS011;10424;52.102;8.084;2024-03-06T05:27:30;63.00;;;28.80;;
20531;SDS011;10424;52.102;8.084;2024-03-06T05:29:57;65.57;;;28.50;;
20531;SDS011;10424;52.102;8.084;2024-03-06T05:32:26;61.78;;;28.13;;
20531;SDS011;10424;52.102;8.084;2024-03-06T05:34:53;60.53;;;28.50;;
20531;SDS011;10424;52.102;8.084;2024-03-06T05:37:20;65.00;;;28.20;;
20531;SDS011;10424;52.102;8.084;2024-03-06T05:39:47;63.38;;;28.90;;
20531;SDS011;10424;52.102;8.084;2024-03-06T05:42:15;60.50;;;27.98;;
20531;SDS011;10424;52.102;8.084;2024-03-06T05:44:42;59.42;;;26.83;;
20531;SDS011;10424;52.102;8.084;2024-03-06T05:47:09;59.63;;;27.02;;
20531;SDS011;10424;52.102;8.084;2024-03-06T05:49:37;62.92;;;27.73;;
20531;SDS011;10424;52.102;8.084;2024-03-06T05:52:04;60.78;;;28.27;;
20531;SDS011;10424;52.102;8.084;2024-03-06T05:54:32;60.65;;;28.70;;
20531;SDS011;10424;52.102;8.084;2024-03-06T05:57:00;64.38;;;27.45;;
20531;SDS011;10424;52.102;8.084;2024-03-06T05:59:28;60.30;;;27.55;;
20531;SDS011;10424;52.102;8.084;2024-03-06T06:01:55;54.35;;;26.58;;
20531;SDS011;10424;52.102;8.084;2024-03-06T06:04:22;56.83;;;25.67;;
20531;SDS011;10424;52.102;8.084;2024-03-06T06:06:52;57.05;;;26.58;;
20531;SDS011;10424;52.102;8.084;2024-03-06T06:09:19;61.05;;;27.77;;
20531;SDS011;10424;52.102;8.084;2024-03-06T06:11:46;61.50;;;25.95;;
20531;SDS011;10424;52.102;8.084;2024-03-06T06:14:15;60.60;;;26.23;;
20531;SDS011;10424;52.102;8.084;2024-03-06T06:16:42;63.20;;;27.00;;
20531;SDS011;10424;52.102;8.084;2024-03-06T06:19:09;60.03;;;26.20;;
20531;SDS011;10424;52.102;8.084;2024-03-06T06:21:37;60.10;;;26.50;;
20531;SDS011;10424;52.102;8.084;2024-03-06T06:24:06;57.28;;;26.50;;
20531;SDS011;10424;52.102;8.084;2024-03-06T06:26:33;54.10;;;26.42;;
20531;SDS011;10424;52.102;8.084;2024-03-06T06:29:00;55.63;;;27.02;;
20531;SDS011;10424;52.102;8.084;2024-03-06T06:31:27;58.03;;;26.65;;
20531;SDS011;10424;52.102;8.084;2024-03-06T06:33:54;57.53;;;27.60;;
20531;SDS011;10424;52.102;8.084;2024-03-06T06:36:22;60.97;;;26.52;;
20531;SDS011;10424;52.102;8.084;2024-03-06T06:38:49;59.53;;;26.08;;
20531;SDS011;10424;52.102;8.084;2024-03-06T06:41:18;55.20;;;25.02;;
20531;SDS011;10424;52.102;8.084;2024-03-06T06:43:45;51.63;;;25.58;;
20531;SDS011;10424;52.102;8.084;2024-03-06T06:46:12;48.50;;;23.92;;
20531;SDS011;10424;52.102;8.084;2024-03-06T06:48:41;49.75;;;23.52;;
20531;SDS011;10424;52.102;8.084;2024-03-06T06:51:08;53.47;;;25.83;;
20531;SDS011;10424;52.102;8.084;2024-03-06T06:53:35;49.88;;;24.95;;
20531;SDS011;10424;52.102;8.084;2024-03-06T06:56:07;45.70;;;23.65;;
20531;SDS011;10424;52.102;8.084;2024-03-06T06:58:35;57.03;;;25.20;;
20531;SDS011;10424;52.102;8.084;2024-03-06T07:01:03;52.92;;;24.60;;
20531;SDS011;10424;52.102;8.084;2024-03-06T07:03:30;49.15;;;24.67;;
20531;SDS011;10424;52.102;8.084;2024-03-06T07:05:57;50.55;;;24.77;;
20531;SDS011;10424;52.102;8.084;2024-03-06T07:08:24;53.28;;;25.45;;
20531;SDS011;10424;52.102;8.084;2024-03-06T07:10:52;51.30;;;24.25;;
20531;SDS011;10424;52.102;8.084;2024-03-06T07:13:20;51.22;;;24.60;;
20531;SDS011;10424;52.102;8.084;2024-03-06T07:15:48;56.15;;;24.90;;
20531;SDS011;10424;52.102;8.084;2024-03-06T07:18:15;48.45;;;24.33;;
20531;SDS011;10424;52.102;8.084;2024-03-06T07:20:43;51.70;;;24.05;;
20531;SDS011;10424;52.102;8.084;2024-03-06T07:23:10;53.22;;;24.38;;
20531;SDS011;10424;52.102;8.084;2024-03-06T07:25:37;57.47;;;26.23;;
20531;SDS011;10424;52.102;8.084;2024-03-06T07:28:05;54.33;;;25.02;;
20531;SDS011;10424;52.102;8.084;2024-03-06T07:30:32;55.90;;;26.35;;
20531;SDS011;10424;52.102;8.084;2024-03-06T07:33:01;52.03;;;24.80;;
20531;SDS011;10424;52.102;8.084;2024-03-06T07:35:29;47.78;;;23.58;;
20531;SDS011;10424;52.102;8.084;2024-03-06T07:37:56;54.28;;;24.70;;
20531;SDS011;10424;52.102;8.084;2024-03-06T07:40:24;47.67;;;23.55;;
20531;SDS011;10424;52.102;8.084;2024-03-06T07:42:51;48.58;;;23.77;;
20531;SDS011;10424;52.102;8.084;2024-03-06T07:45:18;49.72;;;24.65;;
20531;SDS011;10424;52.102;8.084;2024-03-06T07:47:46;48.63;;;23.77;;
20531;SDS011;10424;52.102;8.084;2024-03-06T07:50:14;49.03;;;23.42;;
20531;SDS011;10424;52.102;8.084;2024-03-06T07:52:44;51.67;;;25.20;;
20531;SDS011;10424;52.102;8.084;2024-03-06T07:55:11;50.47;;;24.50;;
20531;SDS011;10424;52.102;8.084;2024-03-06T07:57:38;50.95;;;23.77;;
20531;SDS011;10424;52.102;8.084;2024-03-06T08:00:06;49.38;;;24.45;;
20531;SDS011;10424;52.102;8.084;2024-03-06T08:02:39;49.42;;;24.25;;
20531;SDS011;10424;52.102;8.084;2024-03-06T08:05:09;51.45;;;23.73;;
20531;SDS011;10424;52.102;8.084;2024-03-06T08:07:38;49.33;;;24.08;;
20531;SDS011;10424;52.102;8.084;2024-03-06T08:10:07;49.45;;;23.40;;
20531;SDS011;10424;52.102;8.084;2024-03-06T08:12:34;45.97;;;23.23;;
20531;SDS011;10424;52.102;8.084;2024-03-06T08:15:02;45.75;;;23.35;;
20531;SDS011;10424;52.102;8.084;2024-03-06T08:17:29;56.33;;;24.45;;
20531;SDS011;10424;52.102;8.084;2024-03-06T08:19:56;46.47;;;23.63;;
20531;SDS011;10424;52.102;8.084;2024-03-06T08:22:24;47.45;;;23.52;;
20531;SDS011;10424;52.102;8.084;2024-03-06T08:24:53;51.55;;;24.48;;
20531;SDS011;10424;52.102;8.084;2024-03-06T08:27:21;52.25;;;23.92;;
20531;SDS011;10424;52.102;8.084;2024-03-06T08:29:48;53.53;;;25.38;;
20531;SDS011;10424;52.102;8.084;2024-03-06T08:32:16;54.13;;;25.15;;
20531;SDS011;10424;52.102;8.084;2024-03-06T08:34:43;52.28;;;24.38;;
20531;SDS011;10424;52.102;8.084;2024-03-06T08:37:10;48.05;;;24.50;;
20531;SDS011;10424;52.102;8.084;2024-03-06T08:39:38;48.38;;;24.65;;
20531;SDS011;10424;52.102;8.084;2024-03-06T08:42:07;49.40;;;23.92;;
20531;SDS011;10424;52.102;8.084;2024-03-06T08:44:37;52.25;;;24.92;;
20531;SDS011;10424;52.102;8.084;2024-03-06T08:47:05;47.20;;;23.17;;
20531;SDS011;10424;52.102;8.084;2024-03-06T08:49:32;50.78;;;23.58;;
20531;SDS011;10424;52.102;8.084;2024-03-06T08:52:00;45.08;;;22.75;;
20531;SDS011;10424;52.102;8.084;2024-03-06T08:54:27;48.80;;;23.52;;
20531;SDS011;10424;52.102;8.084;2024-03-06T08:56:56;50.97;;;23.38;;
20531;SDS011;10424;52.102;8.084;2024-03-06T08:59:25;46.92;;;24.02;;
20531;SDS011;10424;52.102;8.084;2024-03-06T09:01:53;47.45;;;23.73;;
20531;SDS011;10424;52.102;8.084;2024-03-06T09:04:20;47.45;;;23.85;;
20531;SDS011;10424;52.102;8.084;2024-03-06T09:06:48;47.75;;;24.05;;
20531;SDS011;10424;52.102;8.084;2024-03-06T09:09:15;47.88;;;24.13;;
20531;SDS011;10424;52.102;8.084;2024-03-06T09:11:42;48.42;;;23.88;;
20531;SDS011;10424;52.102;8.084;2024-03-06T09:14:09;48.53;;;23.10;;
20531;SDS011;10424;52.102;8.084;2024-03-06T09:16:38;48.03;;;23.45;;
20531;SDS011;10424;52.102;8.084;2024-03-06T09:19:05;50.40;;;23.50;;
20531;SDS011;10424;52.102;8.084;2024-03-06T09:21:32;52.20;;;24.33;;
20531;SDS011;10424;52.102;8.084;2024-03-06T09:23:59;46.13;;;23.63;;
20531;SDS011;10424;52.102;8.084;2024-03-06T09:26:26;47.40;;;22.67;;
20531;SDS011;10424;52.102;8.084;2024-03-06T09:28:53;46.67;;;23.77;;
20531;SDS011;10424;52.102;8.084;2024-03-06T09:31:20;51.75;;;24.23;;
20531;SDS011;10424;52.102;8.084;2024-03-06T09:33:49;47.28;;;23.40;;
20531;SDS011;10424;52.102;8.084;2024-03-06T09:36:16;50.67;;;25.40;;
20531;SDS011;10424;52.102;8.084;2024-03-06T09:38:43;53.55;;;25.27;;
20531;SDS011;10424;52.102;8.084;2024-03-06T09:41:10;50.13;;;25.33;;
20531;SDS011;10424;52.102;8.084;2024-03-06T09:43:38;50.65;;;25.20;;
20531;SDS011;10424;52.102;8.084;2024-03-06T09:46:06;51.00;;;24.40;;
20531;SDS011;10424;52.102;8.084;2024-03-06T09:48:33;47.08;;;23.90;;
20531;SDS011;10424;52.102;8.084;2024-03-06T09:51:02;52.45;;;24.27;;
20531;SDS011;10424;52.102;8.084;2024-03-06T09:53:29;50.47;;;23.77;;
20531;SDS011;10424;52.102;8.084;2024-03-06T09:55:56;50.55;;;24.50;;
20531;SDS011;10424;52.102;8.084;2024-03-06T09:58:24;47.78;;;23.75;;
20531;SDS011;10424;52.102;8.084;2024-03-06T10:00:52;54.63;;;24.40;;
20531;SDS011;10424;52.102;8.084;2024-03-06T10:03:20;51.78;;;24.58;;
20531;SDS011;10424;52.102;8.084;2024-03-06T10:05:47;61.40;;;26.33;;
20531;SDS011;10424;52.102;8.084;2024-03-06T10:08:15;53.33;;;25.58;;
20531;SDS011;10424;52.102;8.084;2024-03-06T10:10:42;55.08;;;25.45;;
20531;SDS011;10424;52.102;8.084;2024-03-06T10:13:11;53.13;;;26.02;;
20531;SDS011;10424;52.102;8.084;2024-03-06T10:15:38;50.70;;;24.48;;
20531;SDS011;10424;52.102;8.084;2024-03-06T10:18:11;53.47;;;25.13;;
20531;SDS011;10424;52.102;8.084;2024-03-06T10:20:38;54.70;;;25.13;;
20531;SDS011;10424;52.102;8.084;2024-03-06T10:23:07;56.03;;;25.27;;
20531;SDS011;10424;52.102;8.084;2024-03-06T10:25:36;53.97;;;26.02;;
20531;SDS011;10424;52.102;8.084;2024-03-06T10:28:06;55.75;;;26.05;;
20531;SDS011;10424;52.102;8.084;2024-03-06T10:30:34;52.35;;;25.85;;
20531;SDS011;10424;52.102;8.084;2024-03-06T10:33:02;53.83;;;25.35;;
20531;SDS011;10424;52.102;8.084;2024-03-06T10:35:31;56.80;;;25.48;;
20531;SDS011;10424;52.102;8.084;2024-03-06T10:37:58;58.38;;;25.42;;
20531;SDS011;10424;52.102;8.084;2024-03-06T10:40:26;53.75;;;24.25;;
20531;SDS011;10424;52.102;8.084;2024-03-06T10:42:56;53.65;;;24.83;;
20531;SDS011;10424;52.102;8.084;2024-03-06T10:45:23;50.30;;;25.35;;
20531;SDS011;10424;52.102;8.084;2024-03-06T10:47:55;51.85;;;24.02;;
20531;SDS011;10424;52.102;8.084;2024-03-06T10:50:23;47.17;;;24.48;;
20531;SDS011;10424;52.102;8.084;2024-03-06T10:52:51;46.00;;;22.10;;
20531;SDS011;10424;52.102;8.084;2024-03-06T10:55:21;48.05;;;24.08;;
20531;SDS011;10424;52.102;8.084;2024-03-06T10:57:48;49.72;;;24.67;;
20531;SDS011;10424;52.102;8.084;2024-03-06T11:00:17;50.00;;;24.13;;
20531;SDS011;10424;52.102;8.084;2024-03-06T11:02:45;49.70;;;24.98;;
20531;SDS011;10424;52.102;8.084;2024-03-06T11:05:14;53.03;;;24.60;;
20531;SDS011;10424;52.102;8.084;2024-03-06T11:07:41;48.15;;;23.77;;
20531;SDS011;10424;52.102;8.084;2024-03-06T11:10:09;46.70;;;22.92;;
20531;SDS011;10424;52.102;8.084;2024-03-06T11:12:41;49.33;;;23.73;;
20531;SDS011;10424;52.102;8.084;2024-03-06T11:15:10;49.67;;;23.05;;
20531;SDS011;10424;52.102;8.084;2024-03-06T11:17:41;47.15;;;23.98;;
20531;SDS011;10424;52.102;8.084;2024-03-06T11:20:12;54.53;;;24.40;;
20531;SDS011;10424;52.102;8.084;2024-03-06T11:28:30;45.65;;;22.60;;
20531;SDS011;10424;52.102;8.084;2024-03-06T11:30:58;45.75;;;23.52;;
20531;SDS011;10424;52.102;8.084;2024-03-06T11:33:33;43.92;;;23.00;;
20531;SDS011;10424;52.102;8.084;2024-03-06T11:36:14;42.20;;;21.80;;
20531;SDS011;10424;52.102;8.084;2024-03-06T11:38:46;41.42;;;21.95;;
20531;SDS011;10424;52.102;8.084;2024-03-06T11:41:13;41.45;;;21.23;;
20531;SDS011;10424;52.102;8.084;2024-03-06T11:43:43;44.60;;;21.48;;
20531;SDS011;10424;52.102;8.084;2024-03-06T11:46:11;50.67;;;23.38;;
20531;SDS011;10424;52.102;8.084;2024-03-06T11:48:40;45.67;;;23.55;;
20531;SDS011;10424;52.102;8.084;2024-03-06T11:51:07;44.65;;;22.35;;
20531;SDS011;10424;52.102;8.084;2024-03-06T11:53:35;42.45;;;22.30;;
20531;SDS011;10424;52.102;8.084;2024-03-06T11:56:05;44.75;;;23.38;;
20531;SDS011;10424;52.102;8.084;2024-03-06T11:58:33;45.30;;;22.05;;
20531;SDS011;10424;52.102;8.084;2024-03-06T12:01:01;45.42;;;23.25;;
20531;SDS011;10424;52.102;8.084;2024-03-06T12:03:29;45.45;;;22.77;;
20531;SDS011;10424;52.102;8.084;2024-03-06T12:05:58;44.22;;;21.63;;
20531;SDS011;10424;52.102;8.084;2024-03-06T12:08:25;50.20;;;22.20;;
20531;SDS011;10424;52.102;8.084;2024-03-06T12:10:52;49.42;;;23.60;;
20531;SDS011;10424;52.102;8.084;2024-03-06T12:13:20;50.20;;;24.15;;
20531;SDS011;10424;52.102;8.084;2024-03-06T12:15:47;51.78;;;24.00;;
20531;SDS011;10424;52.102;8.084;2024-03-06T12:18:16;47.13;;;23.30;;
20531;SDS011;10424;52.102;8.084;2024-03-06T12:20:43;51.60;;;24.23;;
20531;SDS011;10424;52.102;8.084;2024-03-06T12:23:20;49.65;;;23.35;;
20531;SDS011;10424;52.102;8.084;2024-03-06T12:25:48;46.90;;;23.60;;
20531;SDS011;10424;52.102;8.084;2024-03-06T12:28:15;47.95;;;23.15;;
20531;SDS011;10424;52.102;8.084;2024-03-06T12:30:43;54.53;;;24.25;;
20531;SDS011;10424;52.102;8.084;2024-03-06T12:33:11;52.00;;;24.13;;
20531;SDS011;10424;52.102;8.084;2024-03-06T12:35:43;51.47;;;25.17;;
20531;SDS011;10424;52.102;8.084;2024-03-06T12:38:13;51.28;;;23.75;;
20531;SDS011;10424;52.102;8.084;2024-03-06T12:40:42;52.35;;;25.02;;
20531;SDS011;10424;52.102;8.084;2024-03-06T12:43:10;54.75;;;24.50;;
20531;SDS011;10424;52.102;8.084;2024-03-06T12:45:37;52.97;;;24.75;;
20531;SDS011;10424;52.102;8.084;2024-03-06T12:48:05;49.75;;;24.13;;
20531;SDS011;10424;52.102;8.084;2024-03-06T12:50:32;52.83;;;23.55;;
20531;SDS011;10424;52.102;8.084;2024-03-06T12:52:59;49.85;;;23.33;;
20531;SDS011;10424;52.102;8.084;2024-03-06T12:55:26;47.97;;;22.08;;
20531;SDS011;10424;52.102;8.084;2024-03-06T12:57:55;47.13;;;23.80;;
20531;SDS011;10424;52.102;8.084;2024-03-06T13:00:22;48.42;;;22.95;;
20531;SDS011;10424;52.102;8.084;2024-03-06T13:02:50;48.75;;;23.65;;
20531;SDS011;10424;52.102;8.084;2024-03-06T13:05:17;48.88;;;22.40;;
20531;SDS011;10424;52.102;8.084;2024-03-06T13:07:44;46.22;;;22.73;;
20531;SDS011;10424;52.102;8.084;2024-03-06T13:10:12;47.97;;;23.58;;
20531;SDS011;10424;52.102;8.084;2024-03-06T13:12:39;46.40;;;23.63;;
20531;SDS011;10424;52.102;8.084;2024-03-06T13:15:09;48.33;;;23.98;;
20531;SDS011;10424;52.102;8.084;2024-03-06T13:17:36;48.53;;;23.88;;
20531;SDS011;10424;52.102;8.084;2024-03-06T13:20:05;45.55;;;22.85;;
20531;SDS011;10424;52.102;8.084;2024-03-06T13:22:34;44.50;;;22.65;;
20531;SDS011;10424;52.102;8.084;2024-03-06T13:25:01;47.97;;;24.10;;
20531;SDS011;10424;52.102;8.084;2024-03-06T13:27:29;45.67;;;22.13;;
20531;SDS011;10424;52.102;8.084;2024-03-06T13:29:56;46.78;;;22.65;;
20531;SDS011;10424;52.102;8.084;2024-03-06T13:32:24;42.65;;;21.60;;
20531;SDS011;10424;52.102;8.084;2024-03-06T13:34:53;44.25;;;22.05;;
20531;SDS011;10424;52.102;8.084;2024-03-06T13:37:21;36.22;;;20.52;;
20531;SDS011;10424;52.102;8.084;2024-03-06T13:39:48;44.58;;;21.08;;
20531;SDS011;10424;52.102;8.084;2024-03-06T13:42:17;45.63;;;23.83;;
20531;SDS011;10424;52.102;8.084;2024-03-06T13:44:45;51.08;;;23.90;;
20531;SDS011;10424;52.102;8.084;2024-03-06T13:47:14;47.35;;;23.30;;
20531;SDS011;10424;52.102;8.084;2024-03-06T13:49:43;46.00;;;22.80;;
20531;SDS011;10424;52.102;8.084;2024-03-06T13:52:10;55.85;;;25.10;;
20531;SDS011;10424;52.102;8.084;2024-03-06T13:54:41;59.33;;;26.85;;
20531;SDS011;10424;52.102;8.084;2024-03-06T13:57:08;51.67;;;25.25;;
20531;SDS011;10424;52.102;8.084;2024-03-06T13:59:36;52.00;;;25.75;;
20531;SDS011;10424;52.102;8.084;2024-03-06T14:02:03;56.60;;;26.27;;
20531;SDS011;10424;52.102;8.084;2024-03-06T14:04:31;54.28;;;26.15;;
20531;SDS011;10424;52.102;8.084;2024-03-06T14:07:00;55.88;;;25.85;;
20531;SDS011;10424;52.102;8.084;2024-03-06T14:09:27;52.00;;;25.30;;
20531;SDS011;10424;52.102;8.084;2024-03-06T14:11:55;50.53;;;23.92;;
20531;SDS011;10424;52.102;8.084;2024-03-06T14:14:22;60.58;;;26.33;;
20531;SDS011;10424;52.102;8.084;2024-03-06T14:16:49;61.47;;;27.05;;
20531;SDS011;10424;52.102;8.084;2024-03-06T14:19:17;62.60;;;27.85;;
20531;SDS011;10424;52.102;8.084;2024-03-06T14:21:44;57.60;;;27.38;;
20531;SDS011;10424;52.102;8.084;2024-03-06T14:24:13;64.15;;;27.55;;
20531;SDS011;10424;52.102;8.084;2024-03-06T14:26:41;64.85;;;27.63;;
20531;SDS011;10424;52.102;8.084;2024-03-06T14:29:08;62.90;;;27.52;;
20531;SDS011;10424;52.102;8.084;2024-03-06T14:31:35;66.13;;;27.05;;